createdAt,value
2018-08-09T06:46:39.891Z,26.75
2018-08-09T06:48:31.363Z,26.82
2018-08-09T06:49:03.399Z,26.74
2018-08-09T06:49:35.475Z,26.76
2018-08-09T06:50:07.545Z,26.78
2018-08-09T06:50:39.635Z,26.81
2018-08-09T06:51:11.729Z,26.75
2018-08-09T06:51:43.743Z,26.82
2018-08-09T06:52:15.805Z,26.82
2018-08-09T06:52:47.843Z,26.76
2018-08-09T06:54:39.164Z,26.87
2018-08-09T06:55:11.228Z,26.81
2018-08-09T06:55:43.267Z,26.84
2018-08-09T06:56:15.320Z,26.91
2018-08-09T06:56:47.391Z,26.9
2018-08-09T06:57:19.468Z,26.94
2018-08-09T06:57:51.491Z,26.94
2018-08-09T06:58:23.501Z,26.96
2018-08-09T06:58:55.559Z,26.99
2018-08-09T06:59:30.991Z,26.89
2018-08-09T07:01:23.051Z,26.97
2018-08-09T07:03:14.351Z,27
2018-08-09T07:03:46.406Z,27.12
2018-08-09T07:05:37.881Z,27.18
2018-08-09T07:06:09.901Z,27.19
2018-08-09T07:06:42.079Z,27.18
2018-08-09T07:07:14.109Z,27.18
2018-08-09T07:07:46.155Z,27.21
2018-08-09T07:08:18.221Z,27.15
2018-08-09T07:08:50.289Z,27.18
2018-08-09T07:09:22.370Z,27.16
2018-08-09T07:09:54.478Z,27.18
2018-08-09T07:10:26.512Z,27.23
2018-08-09T07:10:58.576Z,27.3
2018-08-09T07:11:30.645Z,27.3
2018-08-09T07:13:22.384Z,27.27
2018-08-09T07:13:54.473Z,27.28
2018-08-09T07:15:46.214Z,27.41
2018-08-09T07:16:18.284Z,27.41
2018-08-09T07:18:09.853Z,27.46
2018-08-09T07:18:41.897Z,27.45
2018-08-09T07:19:13.912Z,27.51
2018-08-09T07:19:45.932Z,27.49
2018-08-09T07:20:18.004Z,27.55
2018-08-09T07:20:50.058Z,27.59
2018-08-09T07:21:22.136Z,27.61
2018-08-09T07:21:54.205Z,27.62
2018-08-09T07:22:26.258Z,27.62
2018-08-09T07:22:58.284Z,27.55
2018-08-09T07:23:30.356Z,27.61
2018-08-09T07:24:02.424Z,27.64
2018-08-09T07:24:34.464Z,27.66
2018-08-09T07:25:06.545Z,27.71
2018-08-09T07:25:38.606Z,27.66
2018-08-09T07:26:10.643Z,27.8
2018-08-09T07:26:42.697Z,27.79
2018-08-09T07:27:14.747Z,27.84
2018-08-09T07:27:46.789Z,27.84
2018-08-09T07:28:18.832Z,27.87
2018-08-09T07:28:50.874Z,27.84
2018-08-09T07:29:22.943Z,27.91
2018-08-09T07:29:55.017Z,27.93
2018-08-09T07:30:27.076Z,27.96
2018-08-09T07:30:59.152Z,27.93
2018-08-09T07:31:31.212Z,27.91
2018-08-09T07:32:03.247Z,28.05
2018-08-09T07:32:35.348Z,28.03
2018-08-09T07:33:07.395Z,27.98
2018-08-09T07:33:39.516Z,28.02
2018-08-09T07:34:11.577Z,28.09
2018-08-09T07:34:43.837Z,28.02
2018-08-09T07:36:35.589Z,28.12
2018-08-09T07:37:07.661Z,28.21
2018-08-09T07:38:59.407Z,28.23
2018-08-09T07:39:31.596Z,28.27
2018-08-09T07:40:03.684Z,28.17
2018-08-09T07:40:35.748Z,28.3
2018-08-09T07:41:07.808Z,28.27
2018-08-09T07:44:19.079Z,28.53
2018-08-09T07:44:51.144Z,28.53
2018-08-09T07:45:23.251Z,28.58
2018-08-09T07:47:14.997Z,28.68
2018-08-09T07:47:47.082Z,28.67
2018-08-09T07:48:19.191Z,28.64
2018-08-09T07:48:51.332Z,28.73
2018-08-09T07:49:23.340Z,28.83
2018-08-09T07:49:55.432Z,28.8
2018-08-09T07:50:27.504Z,28.79
2018-08-09T07:50:59.722Z,28.78
2018-08-09T07:51:33.283Z,28.82
2018-08-09T07:52:05.355Z,28.91
2018-08-09T07:52:37.449Z,28.88
2018-08-09T07:53:09.494Z,28.88
2018-08-09T07:53:41.577Z,28.8
2018-08-09T07:55:33.369Z,28.88
2018-08-09T07:57:24.841Z,28.98
2018-08-09T07:57:56.931Z,28.9
2018-08-09T07:58:29.015Z,28.91
2018-08-09T07:59:01.111Z,28.97
2018-08-09T07:59:33.185Z,28.92
2018-08-09T08:00:05.291Z,28.95
2018-08-09T08:00:37.448Z,28.98
2018-08-09T08:01:09.507Z,28.95
2018-08-09T08:01:41.708Z,28.94
2018-08-09T08:02:13.894Z,29.01
2018-08-09T08:02:45.990Z,29.11
2018-08-09T08:03:18.086Z,29.06
2018-08-09T08:03:50.192Z,29.06
2018-08-09T08:04:22.272Z,29.06
2018-08-09T08:04:54.335Z,29.08
2018-08-09T08:05:26.391Z,29.08
2018-08-09T08:07:17.764Z,29.11
2018-08-09T08:07:49.857Z,29.14
2018-08-09T08:08:21.940Z,29.13
2018-08-09T08:08:53.992Z,29.14
2018-08-09T08:09:26.031Z,29.2
2018-08-09T08:11:17.363Z,29.15
2018-08-09T08:11:49.523Z,29.15
2018-08-09T08:12:21.721Z,29.21
2018-08-09T08:14:13.330Z,29.26
2018-08-09T08:14:45.451Z,29.2
2018-08-09T08:15:17.650Z,29.28
2018-08-09T08:15:49.917Z,29.28
2018-08-09T08:18:40.708Z,29.3
2018-08-09T08:19:12.791Z,29.32
2018-08-09T08:21:04.111Z,29.29
2018-08-09T08:21:36.196Z,29.38
2018-08-09T08:22:08.279Z,29.33
2018-08-09T08:22:40.324Z,29.33
2018-08-09T08:23:12.390Z,29.26
2018-08-09T08:23:44.497Z,29.38
2018-08-09T08:24:16.603Z,29.23
2018-08-09T08:24:48.696Z,29.29
2018-08-09T08:25:20.755Z,29.23
2018-08-09T08:25:52.854Z,29.26
2018-08-09T08:26:25.038Z,29.17
2018-08-09T08:28:16.441Z,29.18
2018-08-09T08:28:48.544Z,29.11
2018-08-09T08:29:20.613Z,29.29
2018-08-09T08:29:52.696Z,29.23
2018-08-09T08:30:24.732Z,29.3
2018-08-09T08:32:16.198Z,29.32
2018-08-09T08:32:48.293Z,29.33
2018-08-09T08:33:20.383Z,29.35
2018-08-09T08:35:11.967Z,29.35
2018-08-09T08:35:44.786Z,29.35
2018-08-09T08:36:16.887Z,29.33
2018-08-09T08:36:48.983Z,29.3
2018-08-09T08:37:21.094Z,29.39
2018-08-09T08:37:53.208Z,29.35
2018-08-09T08:38:25.303Z,29.35
2018-08-09T08:40:16.937Z,29.35
2018-08-09T08:40:49.015Z,29.38
2018-08-09T08:41:21.184Z,29.38
2018-08-09T08:43:12.977Z,29.43
2018-08-09T08:43:45.225Z,29.48
2018-08-09T08:44:17.533Z,29.45
2018-08-09T08:47:28.713Z,29.55
2018-08-09T08:48:00.807Z,29.61
2018-08-09T08:48:32.896Z,29.6
2018-08-09T08:49:04.992Z,29.6
2018-08-09T08:49:37.074Z,29.65
2018-08-09T08:50:09.179Z,29.63
2018-08-09T08:52:00.920Z,29.61
2018-08-09T08:52:33.027Z,29.66
2018-08-09T08:53:05.162Z,29.67
2018-08-09T08:53:37.294Z,29.75
2018-08-09T08:54:09.351Z,29.75
2018-08-09T08:54:41.441Z,29.77
2018-08-09T08:55:13.563Z,29.77
2018-08-09T08:55:45.630Z,29.79
2018-08-09T08:56:17.720Z,29.82
2018-08-09T08:56:49.831Z,29.84
2018-08-09T08:57:21.906Z,29.82
2018-08-09T08:57:54.036Z,29.84
2018-08-09T08:58:26.139Z,29.85
2018-08-09T08:58:58.214Z,29.89
2018-08-09T08:59:30.299Z,29.94
2018-08-09T09:00:02.624Z,29.95
2018-08-09T09:01:54.042Z,29.94
2018-08-09T09:02:26.116Z,30.03
2018-08-09T09:02:58.206Z,30.06
2018-08-09T09:03:30.301Z,30.06
2018-08-09T09:04:02.399Z,30.1
2018-08-09T09:04:34.561Z,30.03
2018-08-09T09:05:06.760Z,30.09
2018-08-09T09:05:38.807Z,30.13
2018-08-09T09:06:10.986Z,30.16
2018-08-09T09:08:02.388Z,30.22
2018-08-09T09:08:34.471Z,30.21
2018-08-09T09:09:06.584Z,30.24
2018-08-09T09:11:10.531Z,30.34
2018-08-09T09:11:42.613Z,30.24
2018-08-09T09:12:15.425Z,30.28
2018-08-09T09:12:49.255Z,30.39
2018-08-09T09:13:21.311Z,30.31
2018-08-09T09:13:53.365Z,30.37
2018-08-09T09:14:25.471Z,30.44
2018-08-09T09:14:57.576Z,30.39
2018-08-09T09:15:29.631Z,30.48
2018-08-09T09:16:01.747Z,30.45
2018-08-09T09:17:53.236Z,30.44
2018-08-09T09:19:44.739Z,30.48
2018-08-09T09:20:16.931Z,30.54
2018-08-09T09:20:49.040Z,30.48
2018-08-09T09:21:21.137Z,30.48
2018-08-09T09:23:12.892Z,30.54
2018-08-09T09:23:45.891Z,30.51
2018-08-09T09:24:18.110Z,30.54
2018-08-09T09:24:50.379Z,30.52
2018-08-09T09:25:22.464Z,30.48
2018-08-09T09:25:54.594Z,30.48
2018-08-09T09:26:26.692Z,30.47
2018-08-09T09:26:58.871Z,30.48
2018-08-09T09:27:30.850Z,30.45
2018-08-09T09:28:02.949Z,30.56
2018-08-09T09:28:35.042Z,30.52
2018-08-09T09:29:07.099Z,30.45
2018-08-09T09:29:39.192Z,30.49
2018-08-09T09:30:11.289Z,30.47
2018-08-09T09:30:43.409Z,30.51
2018-08-09T09:31:15.502Z,30.42
2018-08-09T09:31:47.772Z,30.44
2018-08-09T09:32:20.112Z,30.45
2018-08-09T09:32:52.446Z,30.47
2018-08-09T09:34:44.028Z,30.49
2018-08-09T09:35:16.147Z,30.49
2018-08-09T09:35:48.266Z,30.57
2018-08-09T09:36:20.332Z,30.56
2018-08-09T09:36:52.358Z,30.59
2018-08-09T09:37:24.455Z,30.6
2018-08-09T09:37:56.524Z,30.48
2018-08-09T09:38:28.616Z,30.59
2018-08-09T09:39:00.671Z,30.57
2018-08-09T09:39:32.753Z,30.51
2018-08-09T09:40:04.818Z,30.59
2018-08-09T09:40:36.815Z,30.59
2018-08-09T09:41:08.902Z,30.6
2018-08-09T09:41:41.061Z,30.57
2018-08-09T09:42:13.150Z,30.59
2018-08-09T09:42:45.222Z,30.62
2018-08-09T09:44:36.661Z,30.59
2018-08-09T09:45:08.734Z,30.63
2018-08-09T09:47:00.642Z,30.63
2018-08-09T09:47:32.744Z,30.66
2018-08-09T09:48:04.804Z,30.64
2018-08-09T09:48:36.986Z,30.7
2018-08-09T09:51:47.968Z,30.78
2018-08-09T09:52:20.096Z,30.78
2018-08-09T09:52:52.282Z,30.7
2018-08-09T09:53:24.355Z,30.78
2018-08-09T09:55:15.675Z,30.85
2018-08-09T09:55:47.790Z,30.73
2018-08-09T09:56:19.974Z,30.85
2018-08-09T09:56:52.326Z,30.86
2018-08-09T09:57:24.660Z,30.73
2018-08-09T09:57:57.510Z,30.88
2018-08-09T09:58:29.594Z,30.84
2018-08-09T09:59:01.664Z,30.78
2018-08-09T09:59:33.726Z,30.81
2018-08-09T10:00:06.612Z,30.86
2018-08-09T10:00:38.670Z,30.84
2018-08-09T10:01:10.756Z,30.88
2018-08-09T10:01:42.908Z,30.84
2018-08-09T10:03:34.422Z,30.86
2018-08-09T10:04:06.504Z,30.86
2018-08-09T10:04:38.600Z,30.91
2018-08-09T10:05:10.696Z,30.84
2018-08-09T10:05:42.783Z,30.89
2018-08-09T10:06:14.859Z,30.88
2018-08-09T10:06:46.954Z,30.86
2018-08-09T10:07:19.005Z,30.91
2018-08-09T10:09:10.690Z,30.89
2018-08-09T10:09:42.791Z,30.91
2018-08-09T10:10:14.872Z,30.96
2018-08-09T10:10:46.954Z,30.93
2018-08-09T10:11:19.077Z,30.96
2018-08-09T10:11:51.326Z,30.88
2018-08-09T10:12:23.424Z,30.89
2018-08-09T10:12:55.523Z,30.97
2018-08-09T10:13:27.591Z,30.99
2018-08-09T10:13:59.648Z,31.03
2018-08-09T10:14:31.763Z,31.04
2018-08-09T10:15:03.858Z,31.03
2018-08-09T10:15:35.968Z,31.04
2018-08-09T10:16:08.047Z,31.04
2018-08-09T10:16:40.164Z,31.04
2018-08-09T10:18:31.781Z,31.01
2018-08-09T10:19:03.867Z,31.06
2018-08-09T10:19:35.998Z,31.06
2018-08-09T10:20:08.077Z,31
2018-08-09T10:20:40.180Z,31.01
2018-08-09T10:21:12.288Z,30.97
2018-08-09T10:21:44.372Z,31.01
2018-08-09T10:22:16.474Z,31
2018-08-09T10:22:48.570Z,31
2018-08-09T10:23:20.674Z,31.01
2018-08-09T10:23:52.762Z,31.01
2018-08-09T10:24:24.853Z,31.03
2018-08-09T10:24:56.953Z,31.03
2018-08-09T10:25:29.031Z,30.91
2018-08-09T10:26:01.134Z,31
2018-08-09T10:26:33.254Z,31.04
2018-08-09T10:27:05.338Z,30.97
2018-08-09T10:27:37.425Z,31.08
2018-08-09T10:29:29.307Z,31.03
2018-08-09T10:30:01.429Z,31
2018-08-09T10:30:33.481Z,31.01
2018-08-09T10:31:05.582Z,31.04
2018-08-09T10:31:37.699Z,31.06
2018-08-09T10:32:10.720Z,31.01
2018-08-09T10:32:43.902Z,31.04
2018-08-09T10:33:16.680Z,31.06
2018-08-09T10:33:51.196Z,31.01
2018-08-09T10:35:42.612Z,30.99
2018-08-09T10:36:14.700Z,31.03
2018-08-09T10:38:06.297Z,31
2018-08-09T10:38:38.378Z,31.01
2018-08-09T10:39:10.484Z,31.1
2018-08-09T10:39:42.603Z,31.06
2018-08-09T10:40:14.705Z,31.01
2018-08-09T10:43:25.648Z,31.06
2018-08-09T10:43:57.732Z,31.01
2018-08-09T10:44:29.897Z,31.12
2018-08-09T10:45:01.892Z,31.13
2018-08-09T10:45:33.966Z,31.13
2018-08-09T10:46:06.076Z,31.19
2018-08-09T10:46:38.151Z,31.22
2018-08-09T10:47:10.215Z,31.18
2018-08-09T10:47:42.318Z,31.13
2018-08-09T10:48:14.415Z,31.26
2018-08-09T10:48:46.499Z,31.25
2018-08-09T10:49:18.600Z,31.23
2018-08-09T10:49:50.688Z,31.19
2018-08-09T10:50:22.789Z,31.21
2018-08-09T10:50:54.878Z,31.28
2018-08-09T10:51:26.978Z,31.23
2018-08-09T10:51:59.198Z,31.31
2018-08-09T10:53:50.725Z,31.28
2018-08-09T10:54:22.812Z,31.37
2018-08-09T10:54:54.901Z,31.4
2018-08-09T10:55:26.984Z,31.41
2018-08-09T10:55:59.047Z,31.36
2018-08-09T10:56:31.140Z,31.37
2018-08-09T10:57:03.216Z,31.5
2018-08-09T10:57:35.305Z,31.4
2018-08-09T10:58:07.378Z,31.44
2018-08-09T10:58:39.480Z,31.43
2018-08-09T10:59:11.568Z,31.53
2018-08-09T10:59:43.646Z,31.55
2018-08-09T11:00:15.725Z,31.55
2018-08-09T11:00:47.796Z,31.53
2018-08-09T11:01:19.865Z,31.65
2018-08-09T11:01:51.935Z,31.58
2018-08-09T11:02:24.025Z,31.52
2018-08-09T11:04:15.551Z,31.7
2018-08-09T11:06:07.066Z,31.65
2018-08-09T11:06:39.111Z,31.71
2018-08-09T11:07:11.198Z,31.74
2018-08-09T11:07:43.293Z,31.75
2018-08-09T11:08:15.441Z,31.75
2018-08-09T11:08:47.526Z,31.78
2018-08-09T11:09:19.633Z,31.71
2018-08-09T11:09:51.682Z,31.86
2018-08-09T11:10:23.877Z,31.86
2018-08-09T11:10:55.936Z,31.87
2018-08-09T11:11:28.010Z,31.94
2018-08-09T11:12:00.076Z,32
2018-08-09T11:12:32.175Z,32.06
2018-08-09T11:13:04.259Z,31.95
2018-08-09T11:13:36.358Z,31.97
2018-08-09T11:14:08.432Z,32.05
2018-08-09T11:14:40.519Z,32.01
2018-08-09T11:15:12.610Z,32
2018-08-09T11:15:44.715Z,32.16
2018-08-09T11:16:16.798Z,32.1
2018-08-09T11:16:48.924Z,32.16
2018-08-09T11:18:40.320Z,32.23
2018-08-09T11:19:12.369Z,32.19
2018-08-09T11:21:04.162Z,32.34
2018-08-09T11:21:36.266Z,32.39
2018-08-09T11:22:08.358Z,32.49
2018-08-09T11:22:40.406Z,32.43
2018-08-09T11:24:42.109Z,32.62
2018-08-09T11:25:14.189Z,32.65
2018-08-09T11:25:46.281Z,32.65
2018-08-09T11:26:18.363Z,32.62
2018-08-09T11:26:50.419Z,32.75
2018-08-09T11:27:22.533Z,32.68
2018-08-09T11:29:14.081Z,32.87
2018-08-09T11:29:46.198Z,32.9
2018-08-09T11:30:18.280Z,32.96
2018-08-09T11:30:50.365Z,33.01
2018-08-09T11:31:22.467Z,33.05
2018-08-09T11:31:54.542Z,33.05
2018-08-09T11:32:26.602Z,33.08
2018-08-09T11:32:58.680Z,33.12
2018-08-09T11:33:30.762Z,33.16
2018-08-09T11:35:22.182Z,33.4
2018-08-09T11:35:54.534Z,33.46
2018-08-09T11:36:26.590Z,33.41
2018-08-09T11:36:58.660Z,33.47
2018-08-09T11:37:30.764Z,33.52
2018-08-09T11:38:02.853Z,33.56
2018-08-09T11:38:35.511Z,33.66
2018-08-09T11:39:09.419Z,33.68
2018-08-09T11:39:41.635Z,33.78
2018-08-09T11:40:13.714Z,33.69
2018-08-09T11:40:45.778Z,33.83
2018-08-09T11:41:17.854Z,33.84
2018-08-09T11:41:49.955Z,33.92
2018-08-09T11:42:22.042Z,33.93
2018-08-09T11:42:54.146Z,33.92
2018-08-09T11:43:26.197Z,34.1
2018-08-09T11:43:58.287Z,34.11
2018-08-09T11:44:30.381Z,34.18
2018-08-09T11:45:02.470Z,34.19
2018-08-09T11:45:34.565Z,34.29
2018-08-09T11:46:06.680Z,34.32
2018-08-09T11:46:38.751Z,34.3
2018-08-09T11:47:10.839Z,34.41
2018-08-09T11:47:42.946Z,34.46
2018-08-09T11:48:15.047Z,34.54
2018-08-09T11:48:47.148Z,34.55
2018-08-09T11:49:19.254Z,34.67
2018-08-09T11:49:51.360Z,34.71
2018-08-09T11:50:23.444Z,34.63
2018-08-09T11:50:55.530Z,34.79
2018-08-09T11:51:27.625Z,34.84
2018-08-09T11:53:19.275Z,34.87
2018-08-09T11:53:51.366Z,34.96
2018-08-09T11:54:23.478Z,35.02
2018-08-09T11:54:55.561Z,35.06
2018-08-09T11:56:47.166Z,35.27
2018-08-09T11:57:19.157Z,35.31
2018-08-09T11:57:51.208Z,35.46
2018-08-09T11:58:23.302Z,35.34
2018-08-09T11:58:55.401Z,35.52
2018-08-09T11:59:27.486Z,35.58
2018-08-09T12:01:19.285Z,35.68
2018-08-09T12:01:51.419Z,35.82
2018-08-09T12:02:23.475Z,35.76
2018-08-09T12:02:55.574Z,35.84
2018-08-09T12:04:47.028Z,35.94
2018-08-09T12:05:19.144Z,35.96
2018-08-09T12:05:51.219Z,35.94
2018-08-09T12:06:23.302Z,36.02
2018-08-09T12:06:55.381Z,36.09
2018-08-09T12:07:27.475Z,36.09
2018-08-09T12:07:59.567Z,36.12
2018-08-09T12:09:51.048Z,36.24
2018-08-09T12:10:23.149Z,36.3
2018-08-09T12:10:55.265Z,36.21
2018-08-09T12:11:27.381Z,36.37
2018-08-09T12:11:59.443Z,36.36
2018-08-09T12:12:31.507Z,36.41
2018-08-09T12:13:03.592Z,36.53
2018-08-09T12:13:35.778Z,36.47
2018-08-09T12:16:46.794Z,36.53
2018-08-09T12:18:38.542Z,36.61
2018-08-09T12:19:10.602Z,36.62
2018-08-09T12:22:21.887Z,36.4
2018-08-09T12:22:53.987Z,36.43
2018-08-09T12:24:45.391Z,36.26
2018-08-09T12:25:17.479Z,36.18
2018-08-09T12:25:49.544Z,36.25
2018-08-09T12:26:21.638Z,36.25
2018-08-09T12:26:53.762Z,36.24
2018-08-09T12:28:45.223Z,36.34
2018-08-09T12:29:17.312Z,36.4
2018-08-09T12:29:49.380Z,36.52
2018-08-09T12:30:21.516Z,36.63
2018-08-09T12:30:53.548Z,36.7
2018-08-09T12:31:25.627Z,36.7
2018-08-09T12:31:57.719Z,36.75
2018-08-09T12:32:29.805Z,36.84
2018-08-09T12:33:01.891Z,36.83
2018-08-09T12:33:33.993Z,36.96
2018-08-09T12:34:06.071Z,37
2018-08-09T12:34:38.166Z,37.09
2018-08-09T12:35:10.287Z,37.09
2018-08-09T12:35:42.390Z,37.17
2018-08-09T12:36:14.464Z,37.22
2018-08-09T12:36:46.588Z,37.24
2018-08-09T12:37:18.631Z,37.31
2018-08-09T12:37:50.736Z,37.41
2018-08-09T12:38:22.841Z,37.45
2018-08-09T12:38:54.937Z,37.53
2018-08-09T12:39:27.034Z,37.64
2018-08-09T12:41:18.820Z,37.79
2018-08-09T12:43:10.554Z,37.93
2018-08-09T12:43:42.675Z,38.08
2018-08-09T12:44:14.767Z,38.17
2018-08-09T12:44:46.845Z,38.2
2018-08-09T12:45:18.980Z,38.31
2018-08-09T12:47:10.321Z,38.55
2018-08-09T12:47:42.434Z,38.61
2018-08-09T12:48:14.521Z,38.71
2018-08-09T12:48:46.612Z,38.74
2018-08-09T12:49:18.724Z,38.8
2018-08-09T12:49:50.826Z,38.9
2018-08-09T12:50:22.920Z,39.04
2018-08-09T12:50:55.031Z,39.06
2018-08-09T12:51:27.150Z,39.19
2018-08-09T12:51:59.242Z,39.25
2018-08-09T12:52:31.339Z,39.19
2018-08-09T12:53:03.439Z,39.33
2018-08-09T12:53:35.525Z,39.37
2018-08-09T12:54:07.615Z,39.47
2018-08-09T12:54:39.692Z,39.42
2018-08-09T12:55:11.787Z,39.45
2018-08-09T12:55:43.863Z,39.5
2018-08-09T12:56:15.958Z,39.42
2018-08-09T12:56:48.035Z,39.46
2018-08-09T12:57:20.114Z,39.47
2018-08-09T12:57:52.216Z,39.46
2018-08-09T12:58:24.326Z,39.56
2018-08-09T12:58:56.406Z,39.6
2018-08-09T12:59:28.488Z,39.71
2018-08-09T13:01:20.299Z,39.87
2018-08-09T13:03:11.877Z,40.05
2018-08-09T13:05:03.339Z,40.18
2018-08-09T13:05:35.466Z,40.25
2018-08-09T13:06:07.533Z,40.28
2018-08-09T13:06:39.848Z,40.34
2018-08-09T13:07:11.957Z,40.5
2018-08-09T13:07:44.094Z,40.45
2018-08-09T13:08:16.202Z,40.57
2018-08-09T13:08:48.297Z,40.54
2018-08-09T13:09:20.515Z,40.6
2018-08-09T13:12:31.670Z,40.79
2018-08-09T13:13:03.711Z,40.69
2018-08-09T13:13:35.770Z,40.77
2018-08-09T13:14:07.880Z,40.66
2018-08-09T13:14:39.986Z,40.72
2018-08-09T13:15:12.056Z,40.65
2018-08-09T13:15:44.159Z,40.75
2018-08-09T13:16:16.217Z,40.74
2018-08-09T13:16:48.328Z,40.69
2018-08-09T13:17:20.435Z,40.7
2018-08-09T13:17:52.534Z,40.72
2018-08-09T13:18:24.652Z,40.77
2018-08-09T13:18:56.714Z,40.7
2018-08-09T13:19:28.820Z,40.75
2018-08-09T13:21:20.607Z,40.78
2018-08-09T13:21:52.692Z,40.79
2018-08-09T13:22:24.757Z,40.77
2018-08-09T13:22:56.855Z,40.75
2018-08-09T13:23:29.007Z,40.65
2018-08-09T13:24:01.074Z,40.62
2018-08-09T13:24:33.147Z,40.63
2018-08-09T13:25:05.291Z,40.51
2018-08-09T13:25:37.375Z,40.45
2018-08-09T13:26:09.456Z,40.48
2018-08-09T13:26:41.531Z,40.34
2018-08-09T13:27:13.629Z,40.31
2018-08-09T13:29:05.182Z,40.15
2018-08-09T13:30:56.861Z,39.99
2018-08-09T13:31:28.953Z,39.9
2018-08-09T13:32:01.051Z,39.87
2018-08-09T13:32:33.138Z,39.78
2018-08-09T13:33:05.200Z,39.83
2018-08-09T13:33:37.351Z,39.67
2018-08-09T13:34:09.405Z,39.6
2018-08-09T13:36:00.882Z,39.33
2018-08-09T13:36:32.982Z,39.28
2018-08-09T13:37:05.075Z,39.23
2018-08-09T13:37:37.150Z,39.23
2018-08-09T13:38:09.308Z,39.12
2018-08-09T13:41:19.873Z,38.9
2018-08-09T13:41:51.966Z,38.81
2018-08-09T13:43:43.282Z,38.62
2018-08-09T13:44:15.393Z,38.54
2018-08-09T13:44:47.474Z,38.5
2018-08-09T13:45:19.553Z,38.5
2018-08-09T13:45:51.661Z,38.44
2018-08-09T13:46:23.764Z,38.33
2018-08-09T13:46:55.841Z,38.28
2018-08-09T13:47:27.937Z,38.28
2018-08-09T13:48:00.069Z,38.17
2018-08-09T13:48:32.139Z,38.05
2018-08-09T13:49:04.226Z,38.09
2018-08-09T13:49:36.313Z,37.93
2018-08-09T13:50:08.408Z,38
2018-08-09T13:50:40.506Z,37.94
2018-08-09T13:51:12.592Z,37.91
2018-08-09T13:53:04.218Z,37.72
2018-08-09T13:53:36.323Z,37.64
2018-08-09T13:54:08.425Z,37.53
2018-08-09T13:54:40.519Z,37.45
2018-08-09T13:55:12.625Z,37.3
2018-08-09T13:55:44.736Z,37.33
2018-08-09T13:56:16.825Z,37.27
2018-08-09T13:56:48.879Z,37.23
2018-08-09T13:58:40.390Z,37.09
2018-08-09T14:00:31.706Z,36.81
2018-08-09T14:01:03.760Z,36.78
2018-08-09T14:01:35.816Z,36.73
2018-08-09T14:03:27.398Z,36.53
2018-08-09T14:03:59.517Z,36.53
2018-08-09T14:05:51.204Z,36.4
2018-08-09T14:06:23.294Z,36.32
2018-08-09T14:06:55.383Z,36.25
2018-08-09T14:07:27.480Z,36.32
2018-08-09T14:07:59.572Z,36.24
2018-08-09T14:08:31.659Z,36.21
2018-08-09T14:10:22.992Z,36.02
2018-08-09T14:10:55.087Z,36.02
2018-08-09T14:11:27.143Z,36.06
2018-08-09T14:11:59.247Z,35.92
2018-08-09T14:12:31.338Z,35.83
2018-08-09T14:13:03.441Z,35.76
2018-08-09T14:13:35.546Z,35.8
2018-08-09T14:14:07.630Z,35.8
2018-08-09T14:14:39.725Z,35.72
2018-08-09T14:15:11.816Z,35.71
2018-08-09T14:15:43.907Z,35.69
2018-08-09T14:17:35.497Z,35.58
2018-08-09T14:18:07.592Z,35.55
2018-08-09T14:21:18.496Z,35.43
2018-08-09T14:21:50.598Z,35.43
2018-08-09T14:22:22.693Z,35.24
2018-08-09T14:22:54.763Z,35.34
2018-08-09T14:23:26.849Z,35.2
2018-08-09T14:23:58.943Z,35.24
2018-08-09T14:27:10.005Z,35.02
2018-08-09T14:27:42.110Z,34.96
2018-08-09T14:28:14.205Z,34.96
2018-08-09T14:28:46.319Z,34.94
2018-08-09T14:29:18.398Z,34.99
2018-08-09T14:29:50.505Z,34.89
2018-08-09T14:30:22.600Z,34.83
2018-08-09T14:30:54.680Z,34.84
2018-08-09T14:31:26.796Z,34.83
2018-08-09T14:31:58.928Z,34.81
2018-08-09T14:32:31.019Z,34.75
2018-08-09T14:33:03.144Z,34.78
2018-08-09T14:33:35.204Z,34.78
2018-08-09T14:34:07.304Z,34.72
2018-08-09T14:34:39.367Z,34.67
2018-08-09T14:35:11.470Z,34.64
2018-08-09T14:35:43.557Z,34.66
2018-08-09T14:36:15.657Z,34.66
2018-08-09T14:36:47.758Z,34.61
2018-08-09T14:37:19.849Z,34.51
2018-08-09T14:39:11.515Z,34.39
2018-08-09T14:39:43.601Z,34.48
2018-08-09T14:41:35.154Z,34.32
2018-08-09T14:42:07.276Z,34.3
2018-08-09T14:43:59.018Z,34.22
2018-08-09T14:45:50.429Z,34.12
2018-08-09T14:47:41.965Z,33.9
2018-08-09T14:48:14.030Z,33.95
2018-08-09T14:48:46.203Z,33.89
2018-08-09T14:49:18.200Z,33.9
2018-08-09T14:51:09.685Z,33.78
2018-08-09T14:51:41.769Z,33.78
2018-08-09T14:52:13.864Z,33.78
2018-08-09T14:52:45.953Z,33.71
2018-08-09T14:53:18.050Z,33.73
2018-08-09T14:53:50.131Z,33.69
2018-08-09T14:54:22.202Z,33.61
2018-08-09T14:54:54.261Z,33.61
2018-08-09T14:55:26.352Z,33.52
2018-08-09T14:55:58.445Z,33.5
2018-08-09T14:56:30.528Z,33.52
2018-08-09T14:58:21.943Z,33.44
2018-08-09T14:58:54.044Z,33.41
2018-08-09T14:59:26.125Z,33.41
2018-08-09T14:59:58.208Z,33.31
2018-08-09T15:00:30.307Z,33.36
2018-08-09T15:01:02.389Z,33.32
2018-08-09T15:01:34.501Z,33.29
2018-08-09T15:02:06.581Z,33.29
2018-08-09T15:03:58.199Z,33.12
2018-08-09T15:04:30.267Z,33.11
2018-08-09T15:05:02.361Z,33.09
2018-08-09T15:05:34.458Z,33.05
2018-08-09T15:06:06.552Z,33.09
2018-08-09T15:07:58.038Z,32.99
2018-08-09T15:09:49.386Z,33.01
2018-08-09T15:10:21.502Z,32.99
2018-08-09T15:10:53.585Z,32.9
2018-08-09T15:11:25.712Z,32.87
2018-08-09T15:11:57.772Z,32.89
2018-08-09T15:12:29.864Z,32.87
2018-08-09T15:13:01.962Z,32.76
2018-08-09T15:13:34.063Z,32.79
2018-08-09T15:15:25.539Z,32.76
2018-08-09T15:15:57.630Z,32.72
2018-08-09T15:16:29.747Z,32.74
2018-08-09T15:18:21.199Z,32.61
2018-08-09T15:18:53.301Z,32.71
2018-08-09T15:19:25.383Z,32.65
2018-08-09T15:21:17.046Z,32.56
2018-08-09T15:21:49.156Z,32.64
2018-08-09T15:22:21.248Z,32.64
2018-08-09T15:22:53.332Z,32.53
2018-08-09T15:23:25.450Z,32.57
2018-08-09T15:23:57.546Z,32.54
2018-08-09T15:24:29.700Z,32.5
2018-08-09T15:25:01.785Z,32.46
2018-08-09T15:25:33.834Z,32.43
2018-08-09T15:26:05.934Z,32.45
2018-08-09T15:26:38.031Z,32.42
2018-08-09T15:27:10.146Z,32.39
2018-08-09T15:27:42.214Z,32.38
2018-08-09T15:28:14.285Z,32.31
2018-08-09T15:28:46.378Z,32.32
2018-08-09T15:29:18.483Z,32.34
2018-08-09T15:29:50.578Z,32.34
2018-08-09T15:30:22.678Z,32.34
2018-08-09T15:32:14.483Z,32.32
2018-08-09T15:32:46.580Z,32.23
2018-08-09T15:33:18.650Z,32.25
2018-08-09T15:33:50.747Z,32.2
2018-08-09T15:34:22.850Z,32.19
2018-08-09T15:34:54.945Z,32.2
2018-08-09T15:35:27.044Z,32.19
2018-08-09T15:35:59.161Z,32.19
2018-08-09T15:36:31.232Z,32.1
2018-08-09T15:37:03.329Z,32.23
2018-08-09T15:37:35.428Z,32.09
2018-08-09T15:38:07.544Z,32.23
2018-08-09T15:38:39.583Z,32.17
2018-08-09T15:39:11.681Z,32.09
2018-08-09T15:39:43.763Z,32.05
2018-08-09T15:40:15.861Z,32.01
2018-08-09T15:40:47.954Z,32.19
2018-08-09T15:41:20.040Z,32.05
2018-08-09T15:41:52.141Z,32.06
2018-08-09T15:42:24.200Z,32
2018-08-09T15:42:56.289Z,32.03
2018-08-09T15:43:28.383Z,32.08
2018-08-09T15:45:19.911Z,32
2018-08-09T15:45:51.995Z,32.03
2018-08-09T15:47:43.579Z,31.97
2018-08-09T15:48:15.566Z,32.03
2018-08-09T15:48:47.653Z,32.01
2018-08-09T15:49:19.748Z,32
2018-08-09T15:51:11.066Z,32.01
2018-08-09T15:51:43.173Z,32.05
2018-08-09T15:52:15.259Z,32.03
2018-08-09T15:52:47.374Z,32.01
2018-08-09T15:53:19.481Z,32.01
2018-08-09T15:53:51.600Z,32.16
2018-08-09T15:54:23.670Z,32.05
2018-08-09T15:54:55.796Z,32.08
2018-08-09T15:55:27.888Z,32.12
2018-08-09T15:55:59.979Z,32.12
2018-08-09T15:57:51.485Z,32.1
2018-08-09T15:58:23.599Z,32.13
2018-08-09T15:58:55.695Z,32.13
2018-08-09T15:59:27.805Z,32.19
2018-08-09T15:59:59.894Z,32.15
2018-08-09T16:00:32.005Z,32.13
2018-08-09T16:01:04.058Z,32.23
2018-08-09T16:01:36.123Z,32.23
2018-08-09T16:02:08.233Z,32.25
2018-08-09T16:02:40.385Z,32.23
2018-08-09T16:03:12.443Z,32.24
2018-08-09T16:05:03.829Z,32.3
2018-08-09T16:05:35.920Z,32.23
2018-08-09T16:07:27.343Z,32.32
2018-08-09T16:07:59.407Z,32.25
2018-08-09T16:08:31.473Z,32.24
2018-08-09T16:09:03.576Z,32.28
2018-08-09T16:09:35.663Z,32.24
2018-08-09T16:11:27.085Z,32.3
2018-08-09T16:11:59.179Z,32.25
2018-08-09T16:12:31.288Z,32.28
2018-08-09T16:13:03.396Z,32.3
2018-08-09T16:13:35.504Z,32.17
2018-08-09T16:14:07.608Z,32.25
2018-08-09T16:14:39.719Z,32.24
2018-08-09T16:15:11.810Z,32.27
2018-08-09T16:15:43.877Z,32.27